createdAt,value
2022-08-01T00:01:32.218Z,16.92
2022-08-01T00:04:01.003Z,16.94
2022-08-01T00:06:29.313Z,16.92
2022-08-01T00:08:57.760Z,16.90
2022-08-01T00:11:26.288Z,16.90
2022-08-01T00:13:55.060Z,16.89
2022-08-01T00:16:26.087Z,16.88
2022-08-01T00:18:55.175Z,16.86
2022-08-01T00:21:23.789Z,16.87
2022-08-01T00:23:52.247Z,16.87
2022-08-01T00:26:21.345Z,16.90
2022-08-01T00:28:49.834Z,16.90
2022-08-01T00:31:18.098Z,16.88
2022-08-01T00:33:46.613Z,16.89
2022-08-01T00:36:14.752Z,16.84
2022-08-01T00:38:43.042Z,16.81
2022-08-01T00:41:11.425Z,16.76
2022-08-01T00:43:39.517Z,16.74
2022-08-01T00:46:07.586Z,16.74
2022-08-01T00:48:35.847Z,16.72
2022-08-01T00:51:05.961Z,16.71
2022-08-01T00:53:51.786Z,16.72
2022-08-01T00:56:27.213Z,16.72
2022-08-01T00:58:56.905Z,16.73
2022-08-01T01:01:25.150Z,16.75
2022-08-01T01:04:08.708Z,16.73
2022-08-01T01:06:49.790Z,16.77
2022-08-01T01:09:23.922Z,16.80
2022-08-01T01:12:01.411Z,16.82
2022-08-01T01:14:40.038Z,16.81
2022-08-01T01:17:10.297Z,16.77
2022-08-01T01:19:44.712Z,16.71
2022-08-01T01:22:19.451Z,16.69
2022-08-01T01:25:21.684Z,16.65
2022-08-01T01:28:07.269Z,16.60
2022-08-01T01:30:39.036Z,16.54
2022-08-01T01:33:11.222Z,16.53
2022-08-01T01:35:46.072Z,16.47
2022-08-01T01:38:23.784Z,16.42
2022-08-01T01:40:54.164Z,16.36
2022-08-01T01:43:29.095Z,16.32
2022-08-01T01:46:04.886Z,16.25
2022-08-01T01:48:35.283Z,16.22
2022-08-01T01:51:04.681Z,16.17
2022-08-01T01:53:36.164Z,16.11
2022-08-01T01:56:05.240Z,16.15
2022-08-01T01:58:38.237Z,16.16
2022-08-01T02:01:14.437Z,16.17
2022-08-01T02:03:45.154Z,16.19
2022-08-01T02:06:15.947Z,16.20
2022-08-01T02:08:45.365Z,16.19
2022-08-01T02:11:19.481Z,16.18
2022-08-01T02:14:09.519Z,16.13
2022-08-01T02:16:40.914Z,16.05
2022-08-01T02:19:11.368Z,16.00
2022-08-01T02:21:51.113Z,15.98
2022-08-01T02:24:36.286Z,15.94
2022-08-01T02:27:23.925Z,15.90
2022-08-01T02:30:01.542Z,15.89
2022-08-01T02:32:48.724Z,15.83
2022-08-01T02:36:31.400Z,15.82
2022-08-01T02:38:32.780Z,15.84
2022-08-01T02:41:05.488Z,15.87
2022-08-01T02:43:38.158Z,15.89
2022-08-01T02:46:09.812Z,15.84
2022-08-01T02:48:42.646Z,15.78
2022-08-01T02:51:13.167Z,15.76
2022-08-01T02:53:43.802Z,15.78
2022-08-01T02:56:14.921Z,15.77
2022-08-01T02:58:44.923Z,15.74
2022-08-01T03:01:16.663Z,15.75
2022-08-01T03:03:48.033Z,15.76
2022-08-01T03:06:18.194Z,15.74
2022-08-01T03:08:49.940Z,15.71
2022-08-01T03:11:19.684Z,15.66
2022-08-01T03:13:49.912Z,15.70
2022-08-01T03:16:19.262Z,15.68
2022-08-01T03:18:49.204Z,15.67
2022-08-01T03:21:19.491Z,15.71
2022-08-01T03:23:55.088Z,15.75
2022-08-01T03:26:27.427Z,15.76
2022-08-01T03:29:00.417Z,15.74
2022-08-01T03:31:30.045Z,15.72
2022-08-01T03:34:01.725Z,15.64
2022-08-01T03:36:33.767Z,15.62
2022-08-01T03:39:06.469Z,15.51
2022-08-01T03:41:41.589Z,15.55
2022-08-01T03:44:15.367Z,15.51
2022-08-01T03:46:44.878Z,15.50
2022-08-01T03:49:18.009Z,15.54
2022-08-01T03:51:50.779Z,15.54
2022-08-01T03:54:23.130Z,15.55
2022-08-01T03:56:52.954Z,15.60
2022-08-01T03:59:22.674Z,15.58
2022-08-01T04:01:51.506Z,15.56
2022-08-01T04:04:20.958Z,15.56
2022-08-01T04:06:52.535Z,15.60
2022-08-01T04:09:22.021Z,15.61
2022-08-01T04:11:50.812Z,15.61
2022-08-01T04:14:19.102Z,15.56
2022-08-01T04:16:47.368Z,15.57
2022-08-01T04:19:17.181Z,15.59
2022-08-01T04:21:45.566Z,15.60
2022-08-01T04:24:18.852Z,15.61
2022-08-01T04:26:49.289Z,15.60
2022-08-01T04:29:20.246Z,15.59
2022-08-01T04:31:50.580Z,15.63
2022-08-01T04:34:22.927Z,15.65
2022-08-01T04:36:53.798Z,15.71
2022-08-01T04:39:28.705Z,15.69
2022-08-01T04:41:58.590Z,15.72
2022-08-01T04:44:32.503Z,15.73
2022-08-01T04:47:04.424Z,15.76
2022-08-01T04:49:33.812Z,15.75
2022-08-01T04:52:23.101Z,15.77
2022-08-01T04:54:52.983Z,15.79
2022-08-01T04:57:21.254Z,15.77
2022-08-01T04:59:50.885Z,15.78
2022-08-01T05:02:19.886Z,15.87
2022-08-01T05:04:48.239Z,15.92
2022-08-01T05:07:17.059Z,15.93
2022-08-01T05:09:47.486Z,15.94
2022-08-01T05:12:17.182Z,15.94
2022-08-01T05:14:45.900Z,15.92
2022-08-01T05:17:14.078Z,15.97
2022-08-01T05:19:44.187Z,16.04
2022-08-01T05:22:12.355Z,16.01
2022-08-01T05:24:41.741Z,16.02
2022-08-01T05:27:11.656Z,16.04
2022-08-01T05:29:44.857Z,16.04
2022-08-01T05:32:13.369Z,16.06
2022-08-01T05:34:41.541Z,16.08
2022-08-01T05:37:10.533Z,16.16
2022-08-01T05:39:38.576Z,16.19
2022-08-01T05:42:07.563Z,16.23
2022-08-01T05:44:36.294Z,16.20
2022-08-01T05:47:04.642Z,16.17
2022-08-01T05:49:32.902Z,16.15
2022-08-01T05:52:03.490Z,16.15
2022-08-01T05:54:32.347Z,16.12
2022-08-01T05:57:03.754Z,16.16
2022-08-01T05:59:32.035Z,16.24
2022-08-01T06:02:00.591Z,16.31
2022-08-01T06:04:29.041Z,16.32
2022-08-01T06:06:57.341Z,16.35
2022-08-01T06:09:25.693Z,16.34
2022-08-01T06:11:53.978Z,16.37
2022-08-01T06:14:22.197Z,16.37
2022-08-01T06:16:50.633Z,16.34
2022-08-01T06:19:18.876Z,16.34
2022-08-01T06:21:47.084Z,16.31
2022-08-01T06:24:15.737Z,16.30
2022-08-01T06:26:43.883Z,16.27
2022-08-01T06:29:12.303Z,16.29
2022-08-01T06:31:41.529Z,16.31
2022-08-01T06:34:09.926Z,16.33
2022-08-01T06:36:38.251Z,16.39
2022-08-01T06:39:06.568Z,16.44
2022-08-01T06:41:34.853Z,16.46
2022-08-01T06:44:05.488Z,16.50
2022-08-01T06:46:35.917Z,16.58
2022-08-01T06:49:09.742Z,16.64
2022-08-01T06:51:38.518Z,16.70
2022-08-01T06:54:07.419Z,16.72
2022-08-01T06:56:36.506Z,16.74
2022-08-01T06:59:05.023Z,16.70
2022-08-01T07:01:34.346Z,16.71
2022-08-01T07:04:04.653Z,16.67
2022-08-01T07:06:36.490Z,16.64
2022-08-01T07:09:12.154Z,16.68
2022-08-01T07:11:42.384Z,16.74
2022-08-01T07:14:10.623Z,16.70
2022-08-01T07:21:38.877Z,16.56
2022-08-01T07:24:00.300Z,16.57
2022-08-01T07:26:28.954Z,16.57
2022-08-01T07:28:57.324Z,16.63
2022-08-01T07:31:28.343Z,16.69
2022-08-01T07:33:58.961Z,16.71
2022-08-01T07:36:27.278Z,16.72
2022-08-01T07:38:56.507Z,16.72
2022-08-01T07:41:45.594Z,16.71
2022-08-01T07:44:13.419Z,16.68
2022-08-01T07:46:41.744Z,16.70
2022-08-01T07:49:10.133Z,16.76
2022-08-01T07:51:39.485Z,16.82
2022-08-01T07:54:08.898Z,16.88
2022-08-01T07:56:37.165Z,16.94
2022-08-01T07:59:05.366Z,17.05
2022-08-01T08:01:33.664Z,17.13
2022-08-01T08:04:02.102Z,17.18
2022-08-01T08:06:30.214Z,17.18
2022-08-01T08:08:58.688Z,17.20
2022-08-01T08:11:27.142Z,17.16
2022-08-01T08:13:58.292Z,17.21
2022-08-01T08:16:27.890Z,17.28
2022-08-01T08:24:02.351Z,17.47
2022-08-01T08:26:30.527Z,17.53
2022-08-01T08:28:58.814Z,17.47
2022-08-01T08:31:52.040Z,17.38
2022-08-01T08:38:51.935Z,17.43
2022-08-01T08:41:21.445Z,17.48
2022-08-01T08:43:50.147Z,17.40
2022-08-01T08:46:28.262Z,17.39
2022-08-01T08:48:57.553Z,17.39
2022-08-01T08:51:33.795Z,17.44
2022-08-01T08:54:04.067Z,17.44
2022-08-01T08:56:35.364Z,17.40
2022-08-01T08:59:04.590Z,17.43
2022-08-01T09:01:59.366Z,17.45
2022-08-01T09:04:27.847Z,17.51
2022-08-01T09:06:56.195Z,17.61
2022-08-01T09:09:24.916Z,17.66
2022-08-01T09:11:57.635Z,17.67
2022-08-01T09:14:36.353Z,17.72
2022-08-01T09:17:12.195Z,17.80
2022-08-01T09:19:43.425Z,17.88
2022-08-01T09:22:14.575Z,17.94
2022-08-01T09:24:43.155Z,17.99
2022-08-01T09:27:22.128Z,18.02
2022-08-01T09:30:00.749Z,18.06
2022-08-01T09:32:35.837Z,18.12
2022-08-01T09:35:30.310Z,18.13
2022-08-01T09:38:20.582Z,18.06
2022-08-01T09:40:58.144Z,18.08
2022-08-01T09:43:29.275Z,18.12
2022-08-01T09:46:00.990Z,18.11
2022-08-01T09:48:30.128Z,18.12
2022-08-01T09:51:59.708Z,18.01
2022-08-01T09:54:56.400Z,18.00
2022-08-01T09:57:25.217Z,18.01
2022-08-01T09:59:58.786Z,18.02
2022-08-01T10:02:43.035Z,18.06
2022-08-01T10:05:21.197Z,18.08
2022-08-01T10:08:07.954Z,18.17
2022-08-01T10:10:38.373Z,18.27
2022-08-01T10:13:09.834Z,18.44
2022-08-01T10:15:38.804Z,18.44
2022-08-01T10:18:16.432Z,18.58
2022-08-01T10:20:57.986Z,18.68
2022-08-01T10:23:39.814Z,18.83
2022-08-01T10:26:13.432Z,19.03
2022-08-01T10:28:49.247Z,19.13
2022-08-01T10:31:19.619Z,19.30
2022-08-01T10:34:01.990Z,19.52
2022-08-01T10:36:31.312Z,19.58
2022-08-01T10:39:03.387Z,19.58
2022-08-01T10:41:34.268Z,19.58
2022-08-01T10:44:03.989Z,19.58
2022-08-01T10:46:33.158Z,19.71
2022-08-01T10:49:11.937Z,19.76
2022-08-01T10:51:52.513Z,19.71
2022-08-01T10:54:27.467Z,19.56
2022-08-01T10:57:01.520Z,19.44
2022-08-01T10:59:58.968Z,19.39
2022-08-01T11:02:32.334Z,19.50
2022-08-01T11:05:24.265Z,19.70
2022-08-01T11:07:55.731Z,19.74
2022-08-01T11:10:39.822Z,19.74
2022-08-01T11:13:09.970Z,19.78
2022-08-01T11:15:50.547Z,19.72
2022-08-01T11:18:30.869Z,19.74
2022-08-01T11:21:56.932Z,19.81
2022-08-01T11:23:55.448Z,19.91
2022-08-01T11:26:28.773Z,19.99
2022-08-01T11:29:24.457Z,19.97
2022-08-01T11:31:53.295Z,20.02
2022-08-01T11:34:54.918Z,19.92
2022-08-01T11:37:30.873Z,19.88
2022-08-01T11:40:25.013Z,19.94
2022-08-01T11:43:13.322Z,20.14
2022-08-01T11:45:49.763Z,20.44
2022-08-01T11:48:27.572Z,20.42
2022-08-01T11:51:02.018Z,20.24
2022-08-01T11:53:31.503Z,19.99
2022-08-01T11:56:00.725Z,19.98
2022-08-01T11:58:31.382Z,19.94
2022-08-01T12:01:00.217Z,19.94
2022-08-01T12:03:33.582Z,19.96
2022-08-01T12:06:03.158Z,20.15
2022-08-01T12:08:35.604Z,20.42
2022-08-01T12:11:07.323Z,20.64
2022-08-01T12:13:44.532Z,20.78
2022-08-01T12:16:13.461Z,20.84
2022-08-01T12:18:43.665Z,20.80
2022-08-01T12:21:11.851Z,20.80
2022-08-01T12:23:40.123Z,20.71
2022-08-01T12:26:08.505Z,20.60
2022-08-01T12:28:57.895Z,20.47
2022-08-01T12:31:34.898Z,20.29
2022-08-01T12:34:31.727Z,20.08
2022-08-01T12:37:03.632Z,19.93
2022-08-01T12:39:36.110Z,19.79
2022-08-01T12:42:11.815Z,19.56
2022-08-01T12:44:41.995Z,19.48
2022-08-01T12:47:11.627Z,19.45
2022-08-01T12:49:42.794Z,19.47
2022-08-01T12:52:13.448Z,19.52
2022-08-01T12:55:01.147Z,19.72
2022-08-01T12:57:29.640Z,19.90
2022-08-01T13:00:25.339Z,19.94
2022-08-01T13:03:15.650Z,19.90
2022-08-01T13:05:44.353Z,19.85
2022-08-01T13:08:34.225Z,19.81
2022-08-01T13:11:10.078Z,20.01
2022-08-01T13:13:40.991Z,20.17
2022-08-01T13:16:12.349Z,20.13
2022-08-01T13:18:52.702Z,19.98
2022-08-01T13:21:26.551Z,20.00
2022-08-01T13:24:12.358Z,19.98
2022-08-01T13:27:02.111Z,19.84
2022-08-01T13:29:39.654Z,19.84
2022-08-01T13:32:27.756Z,19.89
2022-08-01T13:35:09.803Z,20.12
2022-08-01T13:37:39.667Z,20.32
2022-08-01T13:40:09.814Z,20.38
2022-08-01T13:42:38.882Z,20.42
2022-08-01T13:45:14.749Z,20.47
2022-08-01T13:48:11.573Z,20.49
2022-08-01T13:50:33.098Z,20.49
2022-08-01T13:53:01.500Z,20.45
2022-08-01T13:55:34.619Z,20.39
2022-08-01T13:58:04.127Z,20.49
2022-08-01T14:00:32.781Z,20.44
2022-08-01T14:03:01.066Z,20.44
2022-08-01T14:05:29.429Z,20.50
2022-08-01T14:07:57.560Z,20.58
2022-08-01T14:10:26.802Z,20.56
2022-08-01T14:12:57.536Z,20.56
2022-08-01T14:15:37.986Z,20.47
2022-08-01T14:18:10.572Z,20.33
2022-08-01T14:20:40.715Z,20.18
2022-08-01T14:23:10.317Z,20.19
2022-08-01T14:26:03.728Z,20.21
2022-08-01T14:28:29.555Z,20.08
2022-08-01T14:30:59.053Z,19.91
2022-08-01T14:33:28.009Z,19.93
2022-08-01T14:36:06.630Z,19.95
2022-08-01T14:38:46.548Z,19.90
2022-08-01T14:41:16.292Z,19.83
2022-08-01T14:43:44.916Z,19.91
2022-08-01T14:46:15.201Z,20.05
2022-08-01T14:48:43.986Z,20.17
2022-08-01T14:51:12.186Z,20.27
2022-08-01T14:53:46.981Z,20.33
2022-08-01T14:56:19.682Z,20.45
2022-08-01T14:58:48.652Z,20.47
2022-08-01T15:01:17.649Z,20.50
2022-08-01T15:03:47.096Z,20.53
2022-08-01T15:06:15.582Z,20.57
2022-08-01T15:08:44.550Z,20.57
2022-08-01T15:11:13.245Z,20.59
2022-08-01T15:13:42.988Z,20.56
2022-08-01T15:16:12.292Z,20.51
2022-08-01T15:18:40.872Z,20.51
2022-08-01T15:21:11.858Z,20.49
2022-08-01T15:23:49.176Z,20.48
2022-08-01T15:26:17.860Z,20.44
2022-08-01T15:28:46.180Z,20.46
2022-08-01T15:31:14.586Z,20.54
2022-08-01T15:33:42.673Z,20.54
2022-08-01T15:36:12.433Z,20.51
2022-08-01T15:38:43.754Z,20.46
2022-08-01T15:41:11.943Z,20.45
2022-08-01T15:43:44.308Z,20.45
2022-08-01T15:46:13.708Z,20.41
2022-08-01T15:48:42.298Z,20.32
2022-08-01T15:51:10.581Z,20.23
2022-08-01T15:53:38.869Z,20.22
2022-08-01T15:56:07.471Z,20.22
2022-08-01T15:58:35.821Z,20.18
2022-08-01T16:01:04.142Z,20.18
2022-08-01T16:03:32.491Z,20.20
2022-08-01T16:06:00.861Z,20.22
2022-08-01T16:08:29.281Z,20.20
2022-08-01T16:10:57.617Z,20.22
2022-08-01T16:13:26.104Z,20.21
2022-08-01T16:15:54.376Z,20.19
2022-08-01T16:18:23.892Z,20.21
2022-08-01T16:20:52.270Z,20.17
2022-08-01T16:23:20.559Z,20.14
2022-08-01T16:25:48.727Z,20.18
2022-08-01T16:28:18.232Z,20.21
2022-08-01T16:30:53.973Z,20.26
2022-08-01T16:33:40.180Z,20.18
2022-08-01T16:36:19.828Z,20.07
2022-08-01T16:38:48.209Z,19.98
2022-08-01T16:41:19.221Z,19.86
2022-08-01T16:43:53.413Z,19.81
2022-08-01T16:46:25.720Z,19.74
2022-08-01T16:48:54.733Z,19.69
2022-08-01T16:51:23.629Z,19.59
2022-08-01T16:53:52.037Z,19.50
2022-08-01T16:56:21.000Z,19.53
2022-08-01T16:58:49.902Z,19.54
2022-08-01T17:02:00.873Z,19.52
2022-08-01T17:04:09.543Z,19.48
2022-08-01T17:06:37.667Z,19.44
2022-08-01T17:09:06.051Z,19.42
2022-08-01T17:11:34.356Z,19.42
2022-08-01T17:14:02.916Z,19.39
2022-08-01T17:16:31.197Z,19.34
2022-08-01T17:18:59.473Z,19.30
2022-08-01T17:21:28.260Z,19.29
2022-08-01T17:23:56.569Z,19.27
2022-08-01T17:26:24.809Z,19.21
2022-08-01T17:28:53.204Z,19.15
2022-08-01T17:31:21.692Z,19.10
2022-08-01T17:33:54.565Z,19.02
2022-08-01T17:36:23.657Z,18.99
2022-08-01T17:38:52.054Z,18.98
2022-08-01T17:41:20.630Z,18.96
2022-08-01T17:43:48.825Z,18.91
2022-08-01T17:46:18.048Z,18.87
2022-08-01T17:48:47.002Z,18.83
2022-08-01T17:51:19.436Z,18.80
2022-08-01T17:53:57.029Z,18.76
2022-08-01T17:56:27.702Z,18.71
2022-08-01T17:58:56.806Z,18.67
2022-08-01T18:01:27.062Z,18.64
2022-08-01T18:03:57.655Z,18.65
2022-08-01T18:06:27.018Z,18.62
2022-08-01T18:08:56.649Z,18.56
2022-08-01T18:11:28.021Z,18.53
2022-08-01T18:13:57.900Z,18.50
2022-08-01T18:16:28.593Z,18.48
2022-08-01T18:18:56.710Z,18.46
2022-08-01T18:21:25.135Z,18.45
2022-08-01T18:23:53.476Z,18.36
2022-08-01T18:26:22.921Z,18.33
2022-08-01T18:28:51.092Z,18.26
2022-08-01T18:31:20.792Z,18.19
2022-08-01T18:33:49.432Z,18.17
2022-08-01T18:36:31.736Z,18.20
2022-08-01T18:39:06.290Z,18.16
2022-08-01T18:41:39.717Z,18.11
2022-08-01T18:44:09.080Z,18.02
2022-08-01T18:46:40.274Z,17.95
2022-08-01T18:49:11.403Z,17.92
2022-08-01T18:51:44.711Z,17.87
2022-08-01T18:54:16.956Z,17.82
2022-08-01T18:56:46.193Z,17.77
2022-08-01T18:59:14.901Z,17.74
2022-08-01T19:01:43.753Z,17.74
2022-08-01T19:04:13.577Z,17.77
2022-08-01T19:06:43.414Z,17.72
2022-08-01T19:09:20.578Z,17.75
2022-08-01T19:11:49.374Z,17.72
2022-08-01T19:14:17.860Z,17.69
2022-08-01T19:16:46.127Z,17.59
2022-08-01T19:19:14.553Z,17.46
2022-08-01T19:21:56.422Z,17.37
2022-08-01T19:24:26.157Z,17.32
2022-08-01T19:26:56.472Z,17.31
2022-08-01T19:29:27.624Z,17.35
2022-08-01T19:32:06.786Z,17.39
2022-08-01T19:34:41.201Z,17.36
2022-08-01T19:37:09.864Z,17.30
2022-08-01T19:39:43.238Z,17.26
2022-08-01T19:42:13.457Z,17.18
2022-08-01T19:44:42.962Z,17.12
2022-08-01T19:47:14.314Z,17.07
2022-08-01T19:49:42.758Z,17.12
2022-08-01T19:52:13.959Z,17.17
2022-08-01T19:54:45.260Z,17.20
2022-08-01T19:57:15.822Z,17.20
2022-08-01T19:59:47.283Z,17.18
2022-08-01T20:02:19.281Z,17.13
2022-08-01T20:04:48.288Z,17.03
2022-08-01T20:07:16.955Z,16.97
2022-08-01T20:09:48.444Z,16.96
2022-08-01T20:12:22.660Z,16.89
2022-08-01T20:14:54.154Z,16.84
2022-08-01T20:17:23.977Z,16.80
2022-08-01T20:19:52.863Z,16.79
2022-08-01T20:22:27.012Z,16.82
2022-08-01T20:24:59.178Z,16.85
2022-08-01T20:27:30.346Z,16.78
2022-08-01T20:30:03.076Z,16.78
2022-08-01T20:32:34.575Z,16.79
2022-08-01T20:35:05.228Z,16.77
2022-08-01T20:38:03.621Z,16.76
2022-08-01T20:40:30.604Z,16.74
2022-08-01T20:42:59.788Z,16.66
2022-08-01T20:45:28.073Z,16.64
2022-08-01T20:47:58.192Z,16.62
2022-08-01T20:50:54.224Z,16.59
2022-08-01T20:53:24.545Z,16.53
2022-08-01T20:56:00.990Z,16.48
2022-08-01T20:58:45.471Z,16.44
2022-08-01T21:01:16.517Z,16.45
2022-08-01T21:03:56.735Z,16.46
2022-08-01T21:06:34.063Z,16.48
2022-08-01T21:09:05.274Z,16.42
2022-08-01T21:12:16.605Z,16.38
2022-08-01T21:14:55.554Z,16.38
2022-08-01T21:17:41.339Z,16.40
2022-08-01T21:20:13.338Z,16.41
2022-08-01T21:23:03.370Z,16.40
2022-08-01T21:25:34.797Z,16.39
2022-08-01T21:28:04.228Z,16.35
2022-08-01T21:30:36.490Z,16.30
2022-08-01T21:33:05.501Z,16.26
2022-08-01T21:35:35.330Z,16.23
2022-08-01T21:38:05.607Z,16.21
2022-08-01T21:40:35.289Z,16.24
2022-08-01T21:43:05.089Z,16.25
2022-08-01T21:45:33.138Z,16.19
2022-08-01T21:48:02.945Z,16.16
2022-08-01T21:50:39.766Z,16.14
2022-08-01T21:53:32.084Z,16.09
2022-08-01T21:56:14.588Z,16.06
2022-08-01T21:58:59.044Z,16.05
2022-08-01T22:01:50.004Z,16.02
2022-08-01T22:04:44.784Z,15.96
2022-08-01T22:07:16.622Z,15.93
2022-08-01T22:09:50.122Z,15.93
2022-08-01T22:12:20.873Z,15.95
2022-08-01T22:14:54.141Z,15.95
2022-08-01T22:17:24.422Z,15.98
2022-08-01T22:19:55.322Z,15.98
2022-08-01T22:22:32.305Z,15.98
2022-08-01T22:25:14.697Z,15.98
2022-08-01T22:28:05.869Z,15.99
2022-08-01T22:30:35.221Z,16.04
2022-08-01T22:33:15.195Z,16.05
2022-08-01T22:35:49.596Z,16.04
2022-08-01T22:38:20.594Z,16.04
2022-08-01T22:41:19.128Z,16.02
2022-08-01T22:44:04.453Z,15.98
2022-08-01T22:46:47.744Z,15.96
2022-08-01T22:49:31.316Z,15.93
2022-08-01T22:52:19.624Z,15.94
2022-08-01T22:55:08.480Z,15.91
2022-08-01T22:57:59.258Z,15.87
2022-08-01T23:00:32.802Z,15.87
2022-08-01T23:03:23.756Z,15.84
2022-08-01T23:06:18.080Z,15.76
2022-08-01T23:08:46.897Z,15.73
2022-08-01T23:11:15.763Z,15.72
2022-08-01T23:13:44.476Z,15.73
2022-08-01T23:16:17.049Z,15.72
2022-08-01T23:18:47.567Z,15.73
2022-08-01T23:21:17.074Z,15.75
2022-08-01T23:23:47.619Z,15.75
2022-08-01T23:26:17.215Z,15.71
2022-08-01T23:28:46.622Z,15.64
2022-08-01T23:31:16.140Z,15.56
2022-08-01T23:33:44.405Z,15.47
2022-08-01T23:36:14.874Z,15.41
2022-08-01T23:38:45.315Z,15.39
2022-08-01T23:41:16.402Z,15.41
2022-08-01T23:43:52.416Z,15.42
2022-08-01T23:46:20.982Z,15.40
2022-08-01T23:48:49.185Z,15.42
2022-08-01T23:51:24.687Z,15.45
2022-08-01T23:53:53.380Z,15.47
2022-08-01T23:56:25.392Z,15.47
2022-08-01T23:58:55.033Z,15.45
